Time;durP1;ratioP1;P1;durP2;ratioP2;P2;SDS_P1;SDS_P2;PMS_P1;PMS_P2;Temp;Humidity;BMP_temperature;BMP_pressure;BME280_temperature;BME280_humidity;BME280_pressure;Samples;Min_cycle;Max_cycle;Signal;HPM_P1;HPM_P2
2021/01/29 00:02:15;;;;;;;3.10;0.60;;;10.90;99.90;;;;;;5047000;28;20385;-60
2021/01/29 00:04:40;;;;;;;3.55;0.80;;;10.90;99.90;;;;;;5049220;28;20410;-62
2021/01/29 00:07:07;;;;;;;4.70;0.80;;;10.90;99.90;;;;;;5044753;28;20393;-60
2021/01/29 00:09:35;;;;;;;2.72;0.60;;;10.90;99.90;;;;;;5047399;28;20433;-60
2021/01/29 00:12:01;;;;;;;3.30;0.70;;;10.90;99.90;;;;;;5046425;28;20416;-60
2021/01/29 00:14:26;;;;;;;2.92;0.70;;;10.90;99.90;;;;;;5049500;28;20377;-60
2021/01/29 00:16:52;;;;;;;2.73;0.70;;;10.90;99.90;;;;;;5045056;28;20489;-60
2021/01/29 00:19:18;;;;;;;3.55;0.77;;;10.70;99.90;;;;;;5048106;28;20392;-61
2021/01/29 00:21:43;;;;;;;2.83;1.00;;;10.70;99.90;;;;;;5045906;28;20459;-61
2021/01/29 00:24:09;;;;;;;2.92;0.60;;;10.70;99.90;;;;;;5030439;28;20926;-60
2021/01/29 00:26:35;;;;;;;3.07;0.70;;;10.60;99.90;;;;;;5045856;28;20476;-60
2021/01/29 00:29:00;;;;;;;2.53;0.60;;;10.50;99.90;;;;;;5044948;28;20851;-60
2021/01/29 00:31:26;;;;;;;3.50;0.67;;;10.50;99.90;;;;;;5048829;28;20464;-60
2021/01/29 00:33:52;;;;;;;2.70;0.60;;;10.50;99.90;;;;;;5044215;28;20503;-60
2021/01/29 00:36:17;;;;;;;3.50;0.80;;;10.60;99.90;;;;;;5048471;28;20385;-60
2021/01/29 00:38:43;;;;;;;2.60;0.65;;;10.60;99.90;;;;;;5049497;28;20396;-60
2021/01/29 00:41:09;;;;;;;3.85;0.60;;;10.60;99.90;;;;;;5043466;28;20394;-60
2021/01/29 00:43:34;;;;;;;3.10;0.90;;;10.60;99.90;;;;;;5046185;28;20397;-60
2021/01/29 00:46:00;;;;;;;3.13;0.70;;;10.60;99.90;;;;;;5036544;28;20693;-60
2021/01/29 00:48:26;;;;;;;3.40;0.60;;;10.50;99.90;;;;;;5049243;28;20409;-60
2021/01/29 00:50:52;;;;;;;3.20;0.80;;;10.40;99.90;;;;;;5035978;28;20407;-60
2021/01/29 00:53:17;;;;;;;2.80;0.60;;;10.40;99.90;;;;;;5045692;28;20386;-60
2021/01/29 00:55:43;;;;;;;3.13;0.60;;;10.40;99.90;;;;;;5042972;28;20426;-60
2021/01/29 00:58:09;;;;;;;3.00;0.70;;;10.30;99.90;;;;;;5040445;28;20393;-60
2021/01/29 01:00:34;;;;;;;2.50;0.60;;;10.40;99.90;;;;;;5040793;28;20918;-60
2021/01/29 01:03:00;;;;;;;2.60;0.60;;;10.30;99.90;;;;;;5040880;28;20376;-60
2021/01/29 01:05:27;;;;;;;2.80;0.70;;;10.30;99.90;;;;;;5034091;28;20507;-60
2021/01/29 01:07:54;;;;;;;2.50;0.80;;;10.20;99.90;;;;;;5042445;28;20408;-61
2021/01/29 01:10:21;;;;;;;2.80;0.80;;;10.20;99.90;;;;;;5051615;28;20385;-60
2021/01/29 01:12:46;;;;;;;3.07;0.80;;;10.20;99.90;;;;;;5038801;28;20414;-60
2021/01/29 01:15:15;;;;;;;2.50;0.70;;;10.30;99.90;;;;;;5043231;28;20399;-60
2021/01/29 01:17:41;;;;;;;2.55;0.80;;;10.30;99.90;;;;;;5043818;28;20374;-60
2021/01/29 01:20:11;;;;;;;2.45;0.60;;;10.30;99.90;;;;;;5044252;28;20928;-61
2021/01/29 01:22:37;;;;;;;4.63;0.90;;;10.20;99.90;;;;;;5043724;28;20393;-61
2021/01/29 01:25:03;;;;;;;3.30;0.80;;;10.20;99.90;;;;;;5044652;28;20400;-60
2021/01/29 01:27:29;;;;;;;4.80;1.30;;;10.10;99.90;;;;;;5043614;28;20385;-61
2021/01/29 01:29:54;;;;;;;3.30;0.70;;;10.10;99.90;;;;;;5052394;28;20384;-61
2021/01/29 01:32:20;;;;;;;3.60;0.80;;;12.00;99.90;;;;;;5037393;28;20923;-60
2021/01/29 01:34:46;;;;;;;2.50;0.60;;;10.20;99.90;;;;;;5030037;28;20430;-61
2021/01/29 01:37:11;;;;;;;2.50;0.60;;;10.30;99.90;;;;;;5037430;28;20486;-61
2021/01/29 01:39:37;;;;;;;3.50;1.00;;;10.30;99.90;;;;;;5051465;28;20480;-61
2021/01/29 01:42:03;;;;;;;3.90;1.30;;;10.30;99.90;;;;;;5046454;28;20452;-60
2021/01/29 01:44:37;;;;;;;4.88;1.30;;;10.30;99.90;;;;;;5033016;28;20458;-61
2021/01/29 01:47:24;;;;;;;5.72;1.00;;;10.30;99.90;;;;;;5037830;28;20799;-61
2021/01/29 01:49:54;;;;;;;4.00;0.90;;;10.20;99.90;;;;;;5044136;28;20401;-61
2021/01/29 01:52:31;;;;;;;4.40;1.10;;;10.20;99.90;;;;;;5043146;28;20400;-61
2021/01/29 01:55:05;;;;;;;3.07;1.20;;;11.90;99.90;;;;;;5037502;28;20918;-61
2021/01/29 01:57:33;;;;;;;3.90;1.50;;;7.40;99.90;;;;;;5044024;28;20385;-61
2021/01/29 02:00:09;;;;;;;3.80;1.70;;;10.30;99.90;;;;;;5044018;28;20390;-61
2021/01/29 02:02:37;;;;;;;5.00;1.30;;;10.30;99.90;;;;;;5023844;28;20410;-61
2021/01/29 02:05:11;;;;;;;3.67;1.27;;;10.30;99.90;;;;;;5045419;28;20528;-60
2021/01/29 02:07:40;;;;;;;3.30;1.40;;;10.20;99.90;;;;;;5051765;28;20388;-61
2021/01/29 02:10:06;;;;;;;3.17;1.50;;;10.10;99.90;;;;;;5018453;28;20727;-60
2021/01/29 02:12:32;;;;;;;4.10;1.50;;;10.00;99.90;;;;;;5050097;28;20515;-61
2021/01/29 02:14:58;;;;;;;3.30;1.50;;;9.90;99.90;;;;;;5043255;28;20415;-61
2021/01/29 02:18:00;;;;;;;4.07;1.20;;;9.80;99.90;;;;;;5039332;28;20397;-61
2021/01/29 02:21:00;;;;;;;3.65;1.50;;;9.80;99.90;;;;;;5026245;28;20465;-61
2021/01/29 02:23:50;;;;;;;3.45;1.20;;;9.80;99.90;;;;;;5031461;28;20940;-62
2021/01/29 02:26:57;;;;;;;3.58;1.20;;;9.80;99.90;;;;;;5039202;28;20464;-62
2021/01/29 02:29:36;;;;;;;5.43;1.20;;;9.80;99.90;;;;;;4988967;28;20431;-61
2021/01/29 02:32:46;;;;;;;3.30;1.10;;;9.80;99.90;;;;;;5041526;28;20884;-59
2021/01/29 02:36:00;;;;;;;4.40;1.25;;;9.70;99.90;;;;;;5029164;28;20553;-61
2021/01/29 02:38:37;;;;;;;7.65;1.33;;;9.80;99.90;;;;;;5036280;28;20943;-61
2021/01/29 02:41:24;;;;;;;4.05;1.30;;;9.80;99.90;;;;;;5040042;28;20478;-59
2021/01/29 02:44:08;;;;;;;2.80;1.00;;;9.70;99.90;;;;;;5039729;28;20411;-61
2021/01/29 02:46:54;;;;;;;3.27;1.10;;;9.80;99.90;;;;;;5045639;28;20385;-60
2021/01/29 02:49:34;;;;;;;2.95;0.90;;;9.80;99.90;;;;;;5036448;28;20450;-61
2021/01/29 02:52:03;;;;;;;2.80;0.80;;;9.80;99.90;;;;;;5050821;28;20866;-61
2021/01/29 02:54:35;;;;;;;2.88;1.00;;;9.80;99.90;;;;;;5043662;28;20491;-61
2021/01/29 02:57:07;;;;;;;2.50;0.70;;;9.80;99.90;;;;;;5041749;28;20409;-59
2021/01/29 02:59:45;;;;;;;3.50;0.85;;;9.80;99.90;;;;;;5037935;28;20415;-61
2021/01/29 03:02:35;;;;;;;3.40;0.70;;;9.80;99.90;;;;;;5030050;28;20375;-61
2021/01/29 03:05:12;;;;;;;3.58;1.00;;;9.70;99.90;;;;;;5031256;28;20521;-61
2021/01/29 03:08:03;;;;;;;2.70;0.80;;;9.80;99.90;;;;;;5039385;28;20904;-61
2021/01/29 03:10:49;;;;;;;2.90;1.00;;;9.80;99.90;;;;;;5035817;28;20407;-61
2021/01/29 03:13:31;;;;;;;2.50;0.80;;;9.80;99.90;;;;;;5033162;28;20495;-61
2021/01/29 03:16:06;;;;;;;2.20;0.60;;;9.80;99.90;;;;;;5038536;28;20421;-60
2021/01/29 03:18:47;;;;;;;3.80;0.80;;;9.90;99.90;;;;;;5033992;28;20402;-61
2021/01/29 03:21:17;;;;;;;2.50;0.80;;;9.80;99.90;;;;;;5038169;28;20374;-60
2021/01/29 03:23:49;;;;;;;3.50;0.70;;;9.90;99.90;;;;;;5037628;28;20791;-60
2021/01/29 03:26:37;;;;;;;2.83;0.70;;;9.80;99.90;;;;;;5044364;28;20441;-61
2021/01/29 03:29:08;;;;;;;3.40;0.70;;;9.90;99.90;;;;;;5029827;28;20498;-60
2021/01/29 03:31:36;;;;;;;2.40;0.60;;;9.90;99.90;;;;;;5030613;28;20379;-60
2021/01/29 03:34:10;;;;;;;4.30;0.77;;;10.00;99.90;;;;;;5035605;28;20394;-60
2021/01/29 03:36:43;;;;;;;2.58;0.70;;;9.80;99.90;;;;;;5043798;28;20391;-61
2021/01/29 03:39:25;;;;;;;3.10;0.60;;;9.90;99.90;;;;;;5036713;28;20399;-61
2021/01/29 03:42:17;;;;;;;4.70;0.60;;;9.80;99.90;;;;;;5050018;28;20464;-61
2021/01/29 03:44:48;;;;;;;2.80;0.50;;;9.80;99.90;;;;;;5043403;28;20406;-61
2021/01/29 03:47:25;;;;;;;3.70;0.60;;;9.70;99.90;;;;;;5039693;28;20387;-61
2021/01/29 03:50:26;;;;;;;4.57;0.70;;;9.70;99.90;;;;;;5035304;28;20465;-61
2021/01/29 03:53:18;;;;;;;2.80;0.80;;;9.70;99.90;;;;;;5045449;28;20405;-61
2021/01/29 03:55:44;;;;;;;2.25;0.50;;;9.80;99.90;;;;;;5034719;28;20434;-61
2021/01/29 03:58:38;;;;;;;3.60;0.80;;;9.80;99.90;;;;;;5029186;28;20426;-60
2021/01/29 04:01:16;;;;;;;3.30;0.70;;;9.80;99.90;;;;;;5034976;28;20422;-60
2021/01/29 04:04:02;;;;;;;3.55;0.90;;;9.90;99.90;;;;;;5046098;28;20377;-60
2021/01/29 04:06:34;;;;;;;3.83;0.90;;;9.80;99.90;;;;;;5046563;28;20405;-62
2021/01/29 04:09:07;;;;;;;3.33;0.80;;;9.80;99.90;;;;;;5038300;28;20432;-62
2021/01/29 04:11:40;;;;;;;2.95;0.70;;;9.70;99.90;;;;;;5043018;28;20431;-64
2021/01/29 04:14:11;;;;;;;4.18;0.70;;;9.70;99.90;;;;;;5045714;28;20468;-60
2021/01/29 04:16:39;;;;;;;4.15;0.60;;;9.70;99.90;;;;;;5040986;28;20389;-60
2021/01/29 04:19:12;;;;;;;2.83;0.73;;;9.70;99.90;;;;;;5042421;28;20851;-60
2021/01/29 04:21:38;;;;;;;2.30;0.50;;;9.70;99.90;;;;;;5049795;28;20370;-60
2021/01/29 04:24:25;;;;;;;2.30;0.60;;;9.60;99.90;;;;;;5036886;28;20391;-58
2021/01/29 04:27:08;;;;;;;3.80;0.60;;;9.60;99.90;;;;;;5048612;28;20397;-58
2021/01/29 04:30:17;;;;;;;2.75;0.50;;;9.70;99.90;;;;;;5038865;28;20417;-60
2021/01/29 04:32:49;;;;;;;2.20;0.50;;;9.70;99.90;;;;;;5043934;28;20401;-60
2021/01/29 04:35:18;;;;;;;2.80;0.50;;;9.70;99.90;;;;;;5042350;28;20373;-61
2021/01/29 04:38:08;;;;;;;2.30;0.60;;;9.70;99.90;;;;;;5038683;28;20421;-61
2021/01/29 04:40:57;;;;;;;2.40;0.73;;;9.80;99.90;;;;;;5033716;28;20414;-61
2021/01/29 04:43:48;;;;;;;2.10;0.40;;;9.70;99.90;;;;;;5038436;28;20868;-61
2021/01/29 04:46:38;;;;;;;2.40;0.50;;;11.80;99.90;;;;;;5037422;28;20404;-61
2021/01/29 04:49:14;;;;;;;2.95;0.40;;;9.80;99.90;;;;;;5049571;28;20412;-60
2021/01/29 04:52:17;;;;;;;2.10;0.40;;;9.80;99.90;;;;;;5039961;28;20456;-60
2021/01/29 04:54:46;;;;;;;2.60;0.40;;;9.80;99.90;;;;;;5053197;28;20381;-61
2021/01/29 04:57:30;;;;;;;2.58;0.40;;;9.80;99.90;;;;;;5044574;28;20740;-62
2021/01/29 05:00:29;;;;;;;2.20;0.30;;;9.70;99.90;;;;;;5033785;28;20395;-61
2021/01/29 05:02:57;;;;;;;2.40;0.40;;;9.70;99.90;;;;;;5040611;28;20384;-61
2021/01/29 05:05:48;;;;;;;2.80;0.40;;;9.80;99.90;;;;;;5052144;28;21013;-61
2021/01/29 05:08:32;;;;;;;2.20;0.50;;;9.70;99.90;;;;;;5040615;28;20472;-61
2021/01/29 05:11:03;;;;;;;3.13;0.40;;;9.70;99.90;;;;;;5045793;28;20484;-60
2021/01/29 05:13:51;;;;;;;2.53;0.40;;;9.60;99.90;;;;;;5041319;28;20910;-61
2021/01/29 05:16:26;;;;;;;2.78;0.40;;;9.60;99.90;;;;;;5044630;28;20975;-62
2021/01/29 05:19:25;;;;;;;2.70;0.50;;;9.60;99.90;;;;;;5051334;28;20468;-62
2021/01/29 05:22:10;;;;;;;4.13;0.70;;;9.70;99.90;;;;;;5045745;28;20402;-61
2021/01/29 05:24:38;;;;;;;2.30;0.50;;;9.70;99.90;;;;;;5041106;28;20414;-61
2021/01/29 05:27:30;;;;;;;2.10;0.30;;;9.70;99.90;;;;;;5032601;28;20387;-60
2021/01/29 05:30:23;;;;;;;5.97;0.70;;;9.60;99.90;;;;;;5038421;28;20489;-63
2021/01/29 05:33:32;;;;;;;7.00;0.60;;;9.70;99.90;;;;;;5042693;28;20390;-62
2021/01/29 05:36:29;;;;;;;3.13;0.60;;;9.60;99.90;;;;;;5038970;28;20397;-62
2021/01/29 05:39:10;;;;;;;3.30;0.60;;;9.50;99.90;;;;;;5040957;28;20401;-62
2021/01/29 05:42:04;;;;;;;2.47;0.50;;;9.50;99.90;;;;;;5038432;28;20494;-62
2021/01/29 05:44:45;;;;;;;2.10;0.40;;;9.40;99.90;;;;;;5032526;28;20403;-62
2021/01/29 05:47:40;;;;;;;2.38;0.50;;;9.40;99.90;;;;;;5041160;28;20401;-62
2021/01/29 05:50:23;;;;;;;2.78;0.55;;;9.50;99.90;;;;;;5031778;28;20403;-60
2021/01/29 05:53:12;;;;;;;2.35;0.40;;;9.40;99.90;;;;;;5038559;28;20893;-62
2021/01/29 05:55:42;;;;;;;2.40;0.40;;;9.30;99.90;;;;;;5050123;28;20392;-62
2021/01/29 05:58:27;;;;;;;2.50;0.50;;;9.30;99.90;;;;;;5037088;28;20916;-62
2021/01/29 06:01:19;;;;;;;2.50;0.70;;;9.30;99.90;;;;;;5047673;28;20483;-61
2021/01/29 06:04:07;;;;;;;3.00;0.50;;;9.30;99.90;;;;;;5042422;28;20406;-62
2021/01/29 06:07:09;;;;;;;2.78;0.55;;;9.30;99.90;;;;;;5044488;28;20398;-61
2021/01/29 06:10:22;;;;;;;4.05;0.70;;;9.30;99.90;;;;;;5037342;28;20840;-62
2021/01/29 06:13:09;;;;;;;2.67;0.63;;;9.30;99.90;;;;;;5043883;28;20500;-59
2021/01/29 06:15:56;;;;;;;2.20;0.50;;;9.40;99.90;;;;;;5044111;28;20401;-61
2021/01/29 06:19:09;;;;;;;2.35;0.45;;;9.50;99.90;;;;;;5040876;28;20393;-61
2021/01/29 06:22:00;;;;;;;3.20;0.50;;;9.50;99.90;;;;;;4944067;29;21297;-60
2021/01/29 06:24:41;;;;;;;3.40;0.52;;;9.30;99.90;;;;;;4947614;29;20618;-61
2021/01/29 06:27:22;;;;;;;3.83;0.57;;;9.10;99.90;;;;;;5017651;28;20411;-60
2021/01/29 06:30:10;;;;;;;3.90;0.60;;;9.10;99.90;;;;;;5031985;28;20907;-61
2021/01/29 06:32:58;;;;;;;2.83;0.40;;;9.10;99.90;;;;;;5041428;28;20426;-61
2021/01/29 06:35:50;;;;;;;2.40;0.50;;;9.10;99.90;;;;;;5031110;28;20494;-62
2021/01/29 06:38:41;;;;;;;1.88;0.30;;;9.10;99.90;;;;;;5038862;28;20399;-62
2021/01/29 06:41:33;;;;;;;1.80;0.30;;;9.20;99.90;;;;;;5037595;28;20399;-60
2021/01/29 06:44:30;;;;;;;2.10;0.40;;;9.40;99.90;;;;;;5048551;28;20381;-61
2021/01/29 06:47:10;;;;;;;3.08;0.47;;;9.50;99.90;;;;;;5037390;28;20803;-61
2021/01/29 06:50:00;;;;;;;2.00;0.25;;;9.80;99.90;;;;;;5030590;28;20438;-61
2021/01/29 06:52:45;;;;;;;2.67;0.30;;;9.90;99.90;;;;;;5038057;28;20394;-60
2021/01/29 06:55:32;;;;;;;2.20;0.30;;;10.00;99.90;;;;;;5039733;28;20488;-61
2021/01/29 06:58:36;;;;;;;2.00;0.30;;;9.90;99.90;;;;;;5048555;28;20420;-61
2021/01/29 07:01:17;;;;;;;2.25;0.25;;;9.90;99.90;;;;;;5038802;28;20413;-61
2021/01/29 07:04:04;;;;;;;2.40;0.30;;;9.80;99.90;;;;;;5038732;28;20385;-61
2021/01/29 07:06:53;;;;;;;2.10;0.30;;;9.90;99.90;;;;;;5043585;28;20497;-61
2021/01/29 07:09:34;;;;;;;2.20;0.30;;;9.90;99.90;;;;;;5047887;28;20443;-62
2021/01/29 07:12:37;;;;;;;2.40;0.50;;;9.80;99.90;;;;;;5036415;28;20419;-62
2021/01/29 07:15:25;;;;;;;3.10;0.40;;;9.90;99.90;;;;;;5044761;28;20481;-61
2021/01/29 07:18:24;;;;;;;2.20;0.30;;;9.80;99.90;;;;;;5045670;28;20408;-61
2021/01/29 07:21:22;;;;;;;2.25;0.30;;;9.90;99.90;;;;;;5046200;28;20399;-60
2021/01/29 07:24:06;;;;;;;2.30;0.30;;;9.90;99.90;;;;;;5040307;28;20432;-60
2021/01/29 07:27:03;;;;;;;2.00;0.20;;;9.90;99.90;;;;;;5046476;28;20385;-62
2021/01/29 07:29:43;;;;;;;2.00;0.30;;;9.80;99.90;;;;;;5028955;28;20445;-61
2021/01/29 07:32:43;;;;;;;2.10;0.40;;;9.90;99.90;;;;;;5038669;28;20389;-61
2021/01/29 07:35:14;;;;;;;2.30;0.30;;;9.80;99.90;;;;;;5038717;28;20410;-59
2021/01/29 07:38:02;;;;;;;3.80;0.40;;;9.90;99.90;;;;;;5043157;28;20397;-62
2021/01/29 07:40:47;;;;;;;2.30;0.30;;;9.90;99.90;;;;;;5042652;28;20406;-61
2021/01/29 07:43:38;;;;;;;3.30;0.50;;;9.90;99.90;;;;;;5021581;28;20488;-62
2021/01/29 07:46:20;;;;;;;2.70;0.30;;;9.90;99.90;;;;;;5042909;28;20906;-62
2021/01/29 07:48:55;;;;;;;2.00;0.30;;;9.90;99.90;;;;;;5045476;28;20413;-62
2021/01/29 07:51:42;;;;;;;2.22;0.30;;;10.00;99.90;;;;;;5020269;28;20417;-61
2021/01/29 07:54:17;;;;;;;2.20;0.50;;;9.90;99.90;;;;;;5043608;28;21263;-60
2021/01/29 07:57:16;;;;;;;2.40;0.32;;;10.00;99.90;;;;;;5042367;28;20396;-61
2021/01/29 08:00:14;;;;;;;2.22;0.40;;;10.10;99.90;;;;;;5044218;28;20389;-61
2021/01/29 08:03:17;;;;;;;3.15;0.30;;;10.10;99.90;;;;;;5038634;28;20486;-61
2021/01/29 08:06:00;;;;;;;2.00;0.30;;;10.20;99.90;;;;;;5039891;28;20396;-61
2021/01/29 08:08:35;;;;;;;3.20;0.40;;;10.20;99.90;;;;;;5045192;28;21360;-61
2021/01/29 08:11:06;;;;;;;2.20;0.30;;;10.20;99.90;;;;;;5051295;28;20407;-61
2021/01/29 08:13:32;;;;;;;2.20;0.40;;;10.30;99.90;;;;;;5045000;28;20403;-62
2021/01/29 08:16:51;;;;;;;2.60;0.40;;;10.40;99.90;;;;;;5047672;28;20398;-63
2021/01/29 08:19:42;;;;;;;2.30;0.40;;;10.40;99.90;;;;;;4968542;28;20751;-61
2021/01/29 08:22:22;;;;;;;2.40;0.20;;;10.40;99.90;;;;;;4960055;28;20408;-60
2021/01/29 08:25:21;;;;;;;3.03;0.38;;;10.30;99.90;;;;;;5036751;28;20405;-62
2021/01/29 08:27:56;;;;;;;2.75;0.50;;;10.40;99.90;;;;;;5044849;28;20399;-61
2021/01/29 08:30:21;;;;;;;2.20;0.40;;;10.30;99.90;;;;;;5049736;28;20398;-61
2021/01/29 08:33:12;;;;;;;2.27;0.40;;;10.40;99.90;;;;;;5050213;28;20823;-62
2021/01/29 08:36:14;;;;;;;2.30;0.40;;;10.40;99.90;;;;;;5047182;28;20385;-62
2021/01/29 08:38:48;;;;;;;2.40;0.30;;;10.40;99.90;;;;;;5049779;28;20807;-61
2021/01/29 08:41:27;;;;;;;2.20;0.40;;;10.50;99.90;;;;;;5049431;28;20405;-60
2021/01/29 08:44:12;;;;;;;2.20;0.30;;;10.40;99.90;;;;;;5051666;28;20389;-61
2021/01/29 08:46:52;;;;;;;2.60;0.40;;;10.30;99.90;;;;;;5044306;28;20942;-61
2021/01/29 08:49:49;;;;;;;2.40;0.40;;;10.10;99.90;;;;;;5044736;28;20405;-61
2021/01/29 08:52:38;;;;;;;2.67;0.60;;;10.10;99.90;;;;;;5035901;28;20411;-60
2021/01/29 08:55:32;;;;;;;2.75;0.60;;;10.10;99.90;;;;;;5040599;28;20410;-61
2021/01/29 08:58:11;;;;;;;3.07;0.60;;;10.80;99.90;;;;;;5037259;28;20887;-60
2021/01/29 09:00:40;;;;;;;2.70;0.80;;;11.60;99.90;;;;;;5044181;28;20406;-62
2021/01/29 09:03:27;;;;;;;3.20;0.60;;;11.50;99.90;;;;;;5049457;28;20878;-61
2021/01/29 09:06:10;;;;;;;3.70;1.42;;;12.20;99.90;;;;;;5046234;28;20425;-61
2021/01/29 09:08:35;;;;;;;5.07;0.80;;;12.60;99.90;;;;;;5050112;28;20453;-61
2021/01/29 09:11:19;;;;;;;2.40;0.50;;;12.00;99.90;;;;;;5040456;28;20798;-62
2021/01/29 09:13:54;;;;;;;3.50;0.50;;;12.00;99.90;;;;;;5045564;28;20394;-62
2021/01/29 09:16:30;;;;;;;4.80;0.68;;;12.80;99.90;;;;;;5046868;28;20406;-61
2021/01/29 09:19:07;;;;;;;3.10;0.40;;;12.60;99.90;;;;;;5050329;28;20452;-62
2021/01/29 09:21:54;;;;;;;4.30;0.70;;;12.80;99.90;;;;;;5044990;28;21524;-60
2021/01/29 09:24:36;;;;;;;2.80;0.57;;;13.00;99.90;;;;;;5044884;28;20389;-60
2021/01/29 09:27:04;;;;;;;3.10;0.60;;;12.40;99.90;;;;;;5044713;28;20405;-61
2021/01/29 09:29:37;;;;;;;2.78;0.50;;;12.10;99.90;;;;;;5043240;28;20424;-61
2021/01/29 09:32:07;;;;;;;4.78;0.95;;;11.50;99.90;;;;;;5043880;28;20882;-61
2021/01/29 09:35:02;;;;;;;3.58;0.75;;;11.30;99.90;;;;;;5049074;28;20377;-60
2021/01/29 09:37:29;;;;;;;3.40;1.17;;;11.10;99.90;;;;;;5044999;28;20891;-60
2021/01/29 09:39:54;;;;;;;3.00;0.60;;;10.80;99.90;;;;;;5041910;28;21013;-59
2021/01/29 09:42:43;;;;;;;4.50;1.10;;;10.90;99.90;;;;;;5050318;28;20421;-60
2021/01/29 09:45:16;;;;;;;5.80;0.75;;;11.00;99.90;;;;;;5032454;28;20914;-60
2021/01/29 09:47:45;;;;;;;6.90;1.30;;;11.10;99.90;;;;;;5045255;28;20397;-60
2021/01/29 09:50:20;;;;;;;5.70;0.80;;;11.40;99.90;;;;;;5046645;28;20401;-60
2021/01/29 09:53:06;;;;;;;5.70;0.93;;;12.10;99.90;;;;;;5040828;28;20494;-60
2021/01/29 09:55:38;;;;;;;5.60;0.98;;;12.40;99.90;;;;;;5037389;28;20399;-60
2021/01/29 09:58:25;;;;;;;6.10;1.10;;;12.30;99.90;;;;;;5045107;28;20405;-60
2021/01/29 10:01:12;;;;;;;5.95;0.95;;;12.80;99.90;;;;;;5049475;28;20461;-62
2021/01/29 10:03:55;;;;;;;5.25;0.90;;;12.40;99.90;;;;;;5041101;28;20405;-60
2021/01/29 10:06:30;;;;;;;5.80;1.00;;;12.00;99.90;;;;;;5041039;28;20960;-60
2021/01/29 10:09:03;;;;;;;3.80;0.80;;;11.90;99.90;;;;;;5049157;28;20440;-61
2021/01/29 10:11:42;;;;;;;5.80;1.20;;;12.10;99.90;;;;;;5045940;28;20496;-61
2021/01/29 10:14:17;;;;;;;5.70;1.00;;;12.70;99.90;;;;;;5044507;28;20405;-60
2021/01/29 10:16:55;;;;;;;6.20;0.90;;;12.70;99.90;;;;;;5046706;28;20870;-61
2021/01/29 10:19:43;;;;;;;6.85;1.60;;;12.80;99.90;;;;;;5037807;28;20441;-60
2021/01/29 10:22:33;;;;;;;5.00;0.90;;;13.10;99.90;;;;;;5038809;28;20494;-61
2021/01/29 10:25:18;;;;;;;4.25;0.80;;;13.20;99.90;;;;;;5043525;28;20475;-61
2021/01/29 10:28:09;;;;;;;4.18;0.93;;;13.30;99.90;;;;;;5039390;28;20403;-61
2021/01/29 10:30:43;;;;;;;6.03;1.00;;;12.90;99.90;;;;;;5049081;28;20396;-61
2021/01/29 10:33:24;;;;;;;5.88;1.10;;;15.70;99.90;;;;;;5048309;28;20400;-60
2021/01/29 10:36:04;;;;;;;5.90;1.17;;;13.00;99.90;;;;;;5040120;28;20411;-61
2021/01/29 10:38:35;;;;;;;4.35;0.95;;;13.00;99.90;;;;;;5042994;28;21671;-61
2021/01/29 10:41:16;;;;;;;5.05;1.00;;;13.20;99.90;;;;;;5024785;28;20421;-60
2021/01/29 10:43:49;;;;;;;4.13;0.80;;;13.30;99.90;;;;;;5042226;28;20395;-60
2021/01/29 10:46:52;;;;;;;4.60;1.10;;;13.20;99.90;;;;;;5035992;28;20411;-61
2021/01/29 10:49:24;;;;;;;6.55;1.33;;;13.10;99.90;;;;;;5040995;28;20413;-61
2021/01/29 10:52:32;;;;;;;7.88;1.10;;;13.10;99.90;;;;;;5036263;28;20524;-61
2021/01/29 10:54:58;;;;;;;5.78;0.85;;;12.90;99.90;;;;;;5020501;28;20406;-61
2021/01/29 10:57:35;;;;;;;5.23;1.03;;;13.50;99.90;;;;;;5042231;28;20401;-61
2021/01/29 11:00:09;;;;;;;4.10;1.00;;;13.80;99.90;;;;;;5040342;28;20424;-61
2021/01/29 11:02:38;;;;;;;5.18;0.95;;;13.70;99.90;;;;;;5040239;28;20390;-60
2021/01/29 11:05:09;;;;;;;3.80;0.93;;;13.20;99.90;;;;;;5042632;28;20402;-61
2021/01/29 11:07:39;;;;;;;3.65;0.93;;;13.20;99.90;;;;;;5037946;28;20401;-61
2021/01/29 11:10:21;;;;;;;5.30;1.50;;;12.90;99.90;;;;;;5039333;28;20697;-61
2021/01/29 11:13:06;;;;;;;6.07;1.50;;;13.00;99.90;;;;;;5046339;28;20452;-61
2021/01/29 11:15:42;;;;;;;4.03;1.30;;;12.80;99.90;;;;;;5039714;28;20405;-61
2021/01/29 11:18:37;;;;;;;4.65;1.33;;;12.50;99.90;;;;;;5043158;28;20431;-60
2021/01/29 11:21:46;;;;;;;7.43;1.50;;;12.50;99.90;;;;;;5045232;28;20755;-61
2021/01/29 11:24:18;;;;;;;3.80;1.50;;;12.80;99.90;;;;;;5044054;28;20497;-60
2021/01/29 11:26:54;;;;;;;7.90;1.80;;;13.00;99.90;;;;;;5046754;28;20385;-61
2021/01/29 11:29:27;;;;;;;6.20;1.50;;;13.30;99.90;;;;;;5047570;28;20728;-61
2021/01/29 11:32:21;;;;;;;5.15;1.40;;;13.40;99.90;;;;;;5044892;28;20739;-61
2021/01/29 11:34:52;;;;;;;5.60;2.05;;;13.20;99.90;;;;;;5044052;28;20408;-61
2021/01/29 11:37:26;;;;;;;9.45;2.70;;;13.00;99.90;;;;;;5047973;28;20377;-61
2021/01/29 11:40:10;;;;;;;5.80;1.60;;;13.00;99.90;;;;;;5043190;28;20401;-61
2021/01/29 11:43:00;;;;;;;8.32;2.08;;;12.40;99.90;;;;;;5044369;28;20388;-61
2021/01/29 11:45:30;;;;;;;3.30;1.42;;;12.50;99.90;;;;;;5047507;28;20895;-61
2021/01/29 11:48:10;;;;;;;5.60;1.25;;;12.40;99.90;;;;;;5041793;28;20411;-60
2021/01/29 11:50:36;;;;;;;6.20;2.45;;;12.40;99.90;;;;;;5043969;28;20766;-60
2021/01/29 11:53:13;;;;;;;4.40;1.80;;;12.60;99.90;;;;;;5036694;28;20416;-60
2021/01/29 11:55:47;;;;;;;5.22;1.83;;;12.20;99.90;;;;;;5046109;28;20378;-60
2021/01/29 11:58:44;;;;;;;5.30;1.80;;;11.50;99.90;;;;;;5039754;28;20755;-60
2021/01/29 12:01:44;;;;;;;6.80;2.47;;;11.30;99.90;;;;;;5039807;28;20389;-59
2021/01/29 12:04:22;;;;;;;7.13;1.80;;;11.00;99.90;;;;;;5044565;28;20394;-59
2021/01/29 12:07:09;;;;;;;5.65;3.00;;;11.00;99.90;;;;;;5048823;28;20385;-60
2021/01/29 12:09:49;;;;;;;4.80;1.73;;;11.20;99.90;;;;;;5039023;28;20441;-60
2021/01/29 12:12:38;;;;;;;5.53;2.60;;;11.20;99.90;;;;;;5045766;28;20770;-60
2021/01/29 12:15:09;;;;;;;6.18;2.50;;;11.50;99.90;;;;;;5046220;28;20374;-60
2021/01/29 12:17:36;;;;;;;6.75;2.10;;;11.80;99.90;;;;;;5034969;28;21359;-59
2021/01/29 12:20:08;;;;;;;5.83;2.30;;;11.60;99.90;;;;;;5036178;28;20395;-60
2021/01/29 12:22:44;;;;;;;6.30;2.40;;;11.40;99.90;;;;;;5035384;28;20439;-60
2021/01/29 12:25:28;;;;;;;8.30;2.15;;;11.10;99.90;;;;;;5045665;28;20374;-59
2021/01/29 12:28:33;;;;;;;4.75;2.13;;;11.00;99.90;;;;;;5042334;28;20413;-60
2021/01/29 12:31:24;;;;;;;5.85;2.60;;;11.00;99.90;;;;;;5039802;28;20492;-60
2021/01/29 12:34:02;;;;;;;5.07;2.10;;;11.10;99.90;;;;;;5042830;28;20401;-60
2021/01/29 12:36:31;;;;;;;7.55;2.22;;;11.10;99.90;;;;;;5040894;28;20408;-60
2021/01/29 12:39:19;;;;;;;5.22;2.20;;;11.10;99.90;;;;;;5045263;28;20496;-60
2021/01/29 12:42:14;;;;;;;5.80;2.30;;;8.20;99.90;;;;;;5035816;28;20411;-59
2021/01/29 12:44:56;;;;;;;6.80;2.50;;;11.30;99.90;;;;;;5045926;28;20467;-60
2021/01/29 12:47:37;;;;;;;5.53;2.20;;;11.20;99.90;;;;;;5038106;28;20903;-60
2021/01/29 12:50:22;;;;;;;4.18;2.30;;;11.20;99.90;;;;;;5039736;28;20890;-60
2021/01/29 12:52:55;;;;;;;5.32;2.00;;;11.00;99.90;;;;;;5040557;28;20492;-60
2021/01/29 12:55:34;;;;;;;6.78;1.60;;;11.00;99.90;;;;;;5050410;28;20391;-60
2021/01/29 12:58:03;;;;;;;4.90;0.70;;;10.90;99.90;;;;;;5042747;28;20397;-59
2021/01/29 13:00:40;;;;;;;3.90;0.70;;;10.90;99.90;;;;;;5045419;28;20396;-60
2021/01/29 13:03:31;;;;;;;4.65;0.68;;;11.00;99.90;;;;;;5049043;28;20742;-60
2021/01/29 13:06:23;;;;;;;3.35;0.65;;;10.90;99.90;;;;;;5038895;28;20421;-59
2021/01/29 13:08:58;;;;;;;4.10;1.30;;;10.70;99.90;;;;;;5043630;28;20472;-60
2021/01/29 13:11:48;;;;;;;4.70;1.10;;;10.40;99.90;;;;;;5056065;28;20469;-60
2021/01/29 13:14:46;;;;;;;5.05;1.10;;;10.40;99.90;;;;;;5025227;28;20407;-60
2021/01/29 13:17:36;;;;;;;3.80;0.90;;;10.40;99.90;;;;;;5049266;28;20978;-59
2021/01/29 13:20:11;;;;;;;6.35;1.00;;;10.50;99.90;;;;;;5047498;28;20408;-60
2021/01/29 13:22:47;;;;;;;4.00;0.70;;;10.50;99.90;;;;;;5051839;28;20404;-60
2021/01/29 13:25:20;;;;;;;3.00;0.60;;;10.50;99.90;;;;;;5046131;28;20393;-59
2021/01/29 13:28:12;;;;;;;5.80;1.08;;;10.50;99.90;;;;;;5051862;28;20393;-59
2021/01/29 13:30:41;;;;;;;4.00;0.60;;;10.40;99.90;;;;;;5046549;28;20410;-58
2021/01/29 13:33:27;;;;;;;4.07;0.73;;;10.40;99.90;;;;;;5051607;28;20385;-59
2021/01/29 13:36:16;;;;;;;5.50;0.60;;;10.60;99.90;;;;;;5051533;28;20914;-59
2021/01/29 13:38:42;;;;;;;4.07;0.70;;;10.60;99.90;;;;;;5032178;28;20418;-60
2021/01/29 13:41:20;;;;;;;3.65;0.70;;;9.20;99.90;;;;;;5050931;28;20994;-60
2021/01/29 13:43:47;;;;;;;2.90;0.60;;;10.70;99.90;;;;;;5046324;28;20774;-59
2021/01/29 13:46:25;;;;;;;5.22;0.70;;;10.90;99.90;;;;;;5049324;28;20385;-59
2021/01/29 13:49:25;;;;;;;3.88;0.70;;;11.10;99.90;;;;;;5041002;28;20419;-60
2021/01/29 13:51:52;;;;;;;2.80;0.50;;;11.10;99.90;;;;;;5051609;28;20432;-60
2021/01/29 13:54:30;;;;;;;5.13;1.20;;;10.90;99.90;;;;;;5043918;28;20882;-60
2021/01/29 13:57:01;;;;;;;3.40;0.63;;;10.90;99.90;;;;;;5040923;28;20418;-61
2021/01/29 13:59:33;;;;;;;3.03;0.52;;;10.80;99.90;;;;;;5042904;28;20393;-59